sensor_id;sensor_type;location;lat;lon;timestamp;temperature;humidity
22974;DHT22;11653;50.848;4.584;2023-02-28T00:01:14;2.30;99.90
22974;DHT22;11653;50.848;4.584;2023-02-28T00:03:41;2.30;99.90
22974;DHT22;11653;50.848;4.584;2023-02-28T00:06:09;2.20;99.90
22974;DHT22;11653;50.848;4.584;2023-02-28T00:08:35;2.20;99.90
22974;DHT22;11653;50.848;4.584;2023-02-28T00:11:02;2.20;99.90
22974;DHT22;11653;50.848;4.584;2023-02-28T00:13:28;2.20;99.90
22974;DHT22;11653;50.848;4.584;2023-02-28T00:16:06;2.20;99.90
22974;DHT22;11653;50.848;4.584;2023-02-28T00:18:32;2.20;99.90
22974;DHT22;11653;50.848;4.584;2023-02-28T00:20:59;2.20;99.90
22974;DHT22;11653;50.848;4.584;2023-02-28T00:23:25;2.20;99.90
22974;DHT22;11653;50.848;4.584;2023-02-28T00:25:51;2.20;99.90
22974;DHT22;11653;50.848;4.584;2023-02-28T00:28:17;2.20;99.90
22974;DHT22;11653;50.848;4.584;2023-02-28T00:30:43;2.10;99.90
22974;DHT22;11653;50.848;4.584;2023-02-28T00:33:08;2.20;99.90
22974;DHT22;11653;50.848;4.584;2023-02-28T00:35:34;2.20;99.90
22974;DHT22;11653;50.848;4.584;2023-02-28T00:38:00;2.30;99.90
22974;DHT22;11653;50.848;4.584;2023-02-28T00:40:26;2.20;99.90
22974;DHT22;11653;50.848;4.584;2023-02-28T00:42:51;2.30;99.90
22974;DHT22;11653;50.848;4.584;2023-02-28T00:45:17;2.20;99.90
22974;DHT22;11653;50.848;4.584;2023-02-28T00:47:43;2.30;99.90
22974;DHT22;11653;50.848;4.584;2023-02-28T00:50:09;2.20;99.90
22974;DHT22;11653;50.848;4.584;2023-02-28T00:52:35;2.10;99.90
22974;DHT22;11653;50.848;4.584;2023-02-28T00:55:01;2.10;99.90
22974;DHT22;11653;50.848;4.584;2023-02-28T00:57:26;2.10;99.90
22974;DHT22;11653;50.848;4.584;2023-02-28T00:59:52;2.10;99.90
22974;DHT22;11653;50.848;4.584;2023-02-28T01:02:21;2.00;99.90
22974;DHT22;11653;50.848;4.584;2023-02-28T01:04:47;2.10;99.90
22974;DHT22;11653;50.848;4.584;2023-02-28T01:07:12;2.00;99.90
22974;DHT22;11653;50.848;4.584;2023-02-28T01:09:40;2.00;99.90
22974;DHT22;11653;50.848;4.584;2023-02-28T01:12:07;2.00;99.90
22974;DHT22;11653;50.848;4.584;2023-02-28T01:14:33;1.90;99.90
22974;DHT22;11653;50.848;4.584;2023-02-28T01:16:58;1.90;99.90
22974;DHT22;11653;50.848;4.584;2023-02-28T01:19:24;1.80;99.90
22974;DHT22;11653;50.848;4.584;2023-02-28T01:21:49;1.90;99.90
22974;DHT22;11653;50.848;4.584;2023-02-28T01:24:15;1.80;99.90
22974;DHT22;11653;50.848;4.584;2023-02-28T01:26:41;1.80;99.90
22974;DHT22;11653;50.848;4.584;2023-02-28T01:29:06;1.80;99.90
22974;DHT22;11653;50.848;4.584;2023-02-28T01:31:32;1.80;99.90
22974;DHT22;11653;50.848;4.584;2023-02-28T01:33:58;1.80;99.90
22974;DHT22;11653;50.848;4.584;2023-02-28T01:36:24;1.80;99.90
22974;DHT22;11653;50.848;4.584;2023-02-28T01:38:50;1.70;99.90
22974;DHT22;11653;50.848;4.584;2023-02-28T01:41:42;1.80;99.90
22974;DHT22;11653;50.848;4.584;2023-02-28T01:47:11;1.80;99.90
22974;DHT22;11653;50.848;4.584;2023-02-28T01:49:38;1.70;99.90
22974;DHT22;11653;50.848;4.584;2023-02-28T01:52:03;1.80;99.90
22974;DHT22;11653;50.848;4.584;2023-02-28T01:54:34;1.70;99.90
22974;DHT22;11653;50.848;4.584;2023-02-28T01:57:10;1.70;99.90
22974;DHT22;11653;50.848;4.584;2023-02-28T01:59:47;1.70;99.90
22974;DHT22;11653;50.848;4.584;2023-02-28T02:02:17;1.60;99.90
22974;DHT22;11653;50.848;4.584;2023-02-28T02:04:52;1.60;99.90
22974;DHT22;11653;50.848;4.584;2023-02-28T02:07:20;1.60;99.90
22974;DHT22;11653;50.848;4.584;2023-02-28T02:09:46;1.70;99.90
22974;DHT22;11653;50.848;4.584;2023-02-28T02:15:23;1.60;99.90
22974;DHT22;11653;50.848;4.584;2023-02-28T02:17:53;1.50;99.90
22974;DHT22;11653;50.848;4.584;2023-02-28T02:28:53;1.50;99.90
22974;DHT22;11653;50.848;4.584;2023-02-28T02:38:15;1.50;99.90
22974;DHT22;11653;50.848;4.584;2023-02-28T02:40:22;1.50;99.90
22974;DHT22;11653;50.848;4.584;2023-02-28T02:45:19;1.50;99.90
22974;DHT22;11653;50.848;4.584;2023-02-28T02:47:48;1.40;99.90
22974;DHT22;11653;50.848;4.584;2023-02-28T02:50:22;1.40;99.90
22974;DHT22;11653;50.848;4.584;2023-02-28T02:52:52;1.40;99.90
22974;DHT22;11653;50.848;4.584;2023-02-28T02:55:20;1.40;99.90
22974;DHT22;11653;50.848;4.584;2023-02-28T02:57:59;1.40;99.90
22974;DHT22;11653;50.848;4.584;2023-02-28T03:00:36;1.40;99.90
22974;DHT22;11653;50.848;4.584;2023-02-28T03:03:03;1.40;99.90
22974;DHT22;11653;50.848;4.584;2023-02-28T03:05:34;1.40;99.90
22974;DHT22;11653;50.848;4.584;2023-02-28T03:08:03;1.30;99.90
22974;DHT22;11653;50.848;4.584;2023-02-28T03:10:37;1.30;99.90
22974;DHT22;11653;50.848;4.584;2023-02-28T03:16:12;1.20;99.90
22974;DHT22;11653;50.848;4.584;2023-02-28T03:23:54;1.10;99.90
22974;DHT22;11653;50.848;4.584;2023-02-28T03:26:23;1.10;99.90
22974;DHT22;11653;50.848;4.584;2023-02-28T03:28:52;1.00;99.90
22974;DHT22;11653;50.848;4.584;2023-02-28T03:31:37;1.00;99.90
22974;DHT22;11653;50.848;4.584;2023-02-28T03:36:48;0.70;99.90
22974;DHT22;11653;50.848;4.584;2023-02-28T03:39:28;0.70;99.90
22974;DHT22;11653;50.848;4.584;2023-02-28T03:41:57;0.60;99.90
22974;DHT22;11653;50.848;4.584;2023-02-28T03:44:30;0.60;99.90
22974;DHT22;11653;50.848;4.584;2023-02-28T03:47:04;0.50;99.90
22974;DHT22;11653;50.848;4.584;2023-02-28T03:49:36;0.50;99.90
22974;DHT22;11653;50.848;4.584;2023-02-28T03:52:07;0.50;99.90
22974;DHT22;11653;50.848;4.584;2023-02-28T03:54:37;0.40;99.90
22974;DHT22;11653;50.848;4.584;2023-02-28T03:57:17;0.30;99.90
22974;DHT22;11653;50.848;4.584;2023-02-28T03:59:50;0.20;99.90
22974;DHT22;11653;50.848;4.584;2023-02-28T04:02:18;0.20;99.90
22974;DHT22;11653;50.848;4.584;2023-02-28T04:04:43;0.30;99.90
22974;DHT22;11653;50.848;4.584;2023-02-28T04:07:14;0.30;99.90
22974;DHT22;11653;50.848;4.584;2023-02-28T04:09:40;0.10;99.90
22974;DHT22;11653;50.848;4.584;2023-02-28T04:12:06;0.10;99.90
22974;DHT22;11653;50.848;4.584;2023-02-28T04:14:32;0.10;99.90
22974;DHT22;11653;50.848;4.584;2023-02-28T04:16:58;0.10;99.90
22974;DHT22;11653;50.848;4.584;2023-02-28T04:19:23;0.10;99.90
22974;DHT22;11653;50.848;4.584;2023-02-28T04:21:51;0.00;99.90
22974;DHT22;11653;50.848;4.584;2023-02-28T04:24:21;0.00;99.90
22974;DHT22;11653;50.848;4.584;2023-02-28T04:26:49;0.10;99.90
22974;DHT22;11653;50.848;4.584;2023-02-28T04:29:21;0.10;99.90
22974;DHT22;11653;50.848;4.584;2023-02-28T04:31:47;0.20;99.90
22974;DHT22;11653;50.848;4.584;2023-02-28T04:34:13;0.10;99.90
22974;DHT22;11653;50.848;4.584;2023-02-28T04:36:39;0.10;99.90
22974;DHT22;11653;50.848;4.584;2023-02-28T04:39:04;0.00;99.90
22974;DHT22;11653;50.848;4.584;2023-02-28T04:41:30;0.00;99.90
22974;DHT22;11653;50.848;4.584;2023-02-28T04:43:56;0.10;99.90
22974;DHT22;11653;50.848;4.584;2023-02-28T04:46:22;0.10;99.90
22974;DHT22;11653;50.848;4.584;2023-02-28T04:48:48;0.10;99.90
22974;DHT22;11653;50.848;4.584;2023-02-28T04:51:16;0.10;99.90
22974;DHT22;11653;50.848;4.584;2023-02-28T04:53:42;0.10;99.90
22974;DHT22;11653;50.848;4.584;2023-02-28T04:56:11;0.10;99.90
22974;DHT22;11653;50.848;4.584;2023-02-28T04:58:37;0.10;99.90
22974;DHT22;11653;50.848;4.584;2023-02-28T05:01:14;0.20;99.90
22974;DHT22;11653;50.848;4.584;2023-02-28T05:03:41;0.20;99.90
22974;DHT22;11653;50.848;4.584;2023-02-28T05:06:11;0.20;99.90
22974;DHT22;11653;50.848;4.584;2023-02-28T05:08:37;0.30;99.90
22974;DHT22;11653;50.848;4.584;2023-02-28T05:11:03;0.30;99.90
22974;DHT22;11653;50.848;4.584;2023-02-28T05:13:29;0.40;99.90
22974;DHT22;11653;50.848;4.584;2023-02-28T05:15:55;0.40;99.90
22974;DHT22;11653;50.848;4.584;2023-02-28T05:18:21;0.40;99.90
22974;DHT22;11653;50.848;4.584;2023-02-28T05:20:47;0.50;99.90
22974;DHT22;11653;50.848;4.584;2023-02-28T05:23:13;0.50;99.90
22974;DHT22;11653;50.848;4.584;2023-02-28T05:25:40;0.40;99.90
22974;DHT22;11653;50.848;4.584;2023-02-28T05:28:06;0.30;99.90
22974;DHT22;11653;50.848;4.584;2023-02-28T05:30:32;0.30;99.90
22974;DHT22;11653;50.848;4.584;2023-02-28T05:32:59;0.30;99.90
22974;DHT22;11653;50.848;4.584;2023-02-28T05:35:25;0.30;99.90
22974;DHT22;11653;50.848;4.584;2023-02-28T05:37:52;0.40;99.90
22974;DHT22;11653;50.848;4.584;2023-02-28T05:40:18;0.40;99.90
22974;DHT22;11653;50.848;4.584;2023-02-28T05:42:45;0.50;99.90
22974;DHT22;11653;50.848;4.584;2023-02-28T05:45:11;0.60;99.90
22974;DHT22;11653;50.848;4.584;2023-02-28T05:47:37;0.70;99.90
22974;DHT22;11653;50.848;4.584;2023-02-28T05:50:04;0.80;99.90
22974;DHT22;11653;50.848;4.584;2023-02-28T05:52:29;0.90;99.90
22974;DHT22;11653;50.848;4.584;2023-02-28T05:54:56;0.90;99.90
22974;DHT22;11653;50.848;4.584;2023-02-28T05:57:22;1.00;99.90
22974;DHT22;11653;50.848;4.584;2023-02-28T05:59:48;1.00;99.90
22974;DHT22;11653;50.848;4.584;2023-02-28T06:02:16;1.00;99.90
22974;DHT22;11653;50.848;4.584;2023-02-28T06:04:42;1.00;99.90
22974;DHT22;11653;50.848;4.584;2023-02-28T06:07:09;1.00;99.90
22974;DHT22;11653;50.848;4.584;2023-02-28T06:09:35;1.00;99.90
22974;DHT22;11653;50.848;4.584;2023-02-28T06:12:03;1.10;99.90
22974;DHT22;11653;50.848;4.584;2023-02-28T06:14:31;1.10;99.90
22974;DHT22;11653;50.848;4.584;2023-02-28T06:16:58;1.20;99.90
22974;DHT22;11653;50.848;4.584;2023-02-28T06:19:24;1.20;99.90
22974;DHT22;11653;50.848;4.584;2023-02-28T06:21:53;1.30;99.90
22974;DHT22;11653;50.848;4.584;2023-02-28T06:24:20;1.30;99.90
22974;DHT22;11653;50.848;4.584;2023-02-28T06:26:45;1.30;99.90
22974;DHT22;11653;50.848;4.584;2023-02-28T06:29:11;1.40;99.90
22974;DHT22;11653;50.848;4.584;2023-02-28T06:31:37;1.40;99.90
22974;DHT22;11653;50.848;4.584;2023-02-28T06:34:04;1.40;99.90
22974;DHT22;11653;50.848;4.584;2023-02-28T06:36:30;1.50;99.90
22974;DHT22;11653;50.848;4.584;2023-02-28T06:38:56;1.50;99.90
22974;DHT22;11653;50.848;4.584;2023-02-28T06:41:23;1.50;99.90
22974;DHT22;11653;50.848;4.584;2023-02-28T06:43:49;1.60;99.90
22974;DHT22;11653;50.848;4.584;2023-02-28T06:46:15;1.70;99.90
22974;DHT22;11653;50.848;4.584;2023-02-28T06:48:42;1.70;99.90
22974;DHT22;11653;50.848;4.584;2023-02-28T06:51:11;1.80;99.90
22974;DHT22;11653;50.848;4.584;2023-02-28T06:53:39;1.80;99.90
22974;DHT22;11653;50.848;4.584;2023-02-28T06:56:06;1.90;99.90
22974;DHT22;11653;50.848;4.584;2023-02-28T06:58:33;2.00;99.90
22974;DHT22;11653;50.848;4.584;2023-02-28T07:00:59;2.40;99.90
22974;DHT22;11653;50.848;4.584;2023-02-28T07:03:25;2.80;99.90
22974;DHT22;11653;50.848;4.584;2023-02-28T07:05:50;2.90;99.90
22974;DHT22;11653;50.848;4.584;2023-02-28T07:08:16;3.10;99.90
22974;DHT22;11653;50.848;4.584;2023-02-28T07:10:42;3.30;99.90
22974;DHT22;11653;50.848;4.584;2023-02-28T07:13:08;3.40;99.90
22974;DHT22;11653;50.848;4.584;2023-02-28T07:15:36;3.70;99.90
22974;DHT22;11653;50.848;4.584;2023-02-28T07:18:02;4.10;99.90
22974;DHT22;11653;50.848;4.584;2023-02-28T07:20:29;4.40;99.90
22974;DHT22;11653;50.848;4.584;2023-02-28T07:22:55;4.90;99.90
22974;DHT22;11653;50.848;4.584;2023-02-28T07:25:28;5.50;99.90
22974;DHT22;11653;50.848;4.584;2023-02-28T07:27:55;6.20;99.90
22974;DHT22;11653;50.848;4.584;2023-02-28T07:30:21;7.00;99.90
22974;DHT22;11653;50.848;4.584;2023-02-28T07:32:47;7.70;99.90
22974;DHT22;11653;50.848;4.584;2023-02-28T07:35:13;8.50;99.90
22974;DHT22;11653;50.848;4.584;2023-02-28T07:37:41;9.10;99.90
22974;DHT22;11653;50.848;4.584;2023-02-28T07:40:09;9.70;98.20
22974;DHT22;11653;50.848;4.584;2023-02-28T07:42:37;10.20;95.70
22974;DHT22;11653;50.848;4.584;2023-02-28T07:45:03;10.70;94.80
22974;DHT22;11653;50.848;4.584;2023-02-28T07:47:30;11.10;91.90
22974;DHT22;11653;50.848;4.584;2023-02-28T07:49:56;11.50;90.90
22974;DHT22;11653;50.848;4.584;2023-02-28T07:52:22;11.80;88.60
22974;DHT22;11653;50.848;4.584;2023-02-28T07:54:49;11.90;85.40
22974;DHT22;11653;50.848;4.584;2023-02-28T07:57:15;11.80;84.80
22974;DHT22;11653;50.848;4.584;2023-02-28T07:59:41;12.20;85.30
22974;DHT22;11653;50.848;4.584;2023-02-28T08:02:09;12.10;82.30
22974;DHT22;11653;50.848;4.584;2023-02-28T08:04:36;11.40;83.00
22974;DHT22;11653;50.848;4.584;2023-02-28T08:07:02;11.20;84.20
22974;DHT22;11653;50.848;4.584;2023-02-28T08:09:28;10.60;84.90
22974;DHT22;11653;50.848;4.584;2023-02-28T08:11:55;10.20;87.60
22974;DHT22;11653;50.848;4.584;2023-02-28T08:14:20;10.30;87.10
22974;DHT22;11653;50.848;4.584;2023-02-28T08:16:46;10.70;85.90
22974;DHT22;11653;50.848;4.584;2023-02-28T08:19:12;10.80;85.70
22974;DHT22;11653;50.848;4.584;2023-02-28T08:21:37;10.40;84.50
22974;DHT22;11653;50.848;4.584;2023-02-28T08:24:03;9.90;86.50
22974;DHT22;11653;50.848;4.584;2023-02-28T08:26:29;10.10;86.90
22974;DHT22;11653;50.848;4.584;2023-02-28T08:28:55;10.10;85.70
22974;DHT22;11653;50.848;4.584;2023-02-28T08:31:20;10.20;84.80
22974;DHT22;11653;50.848;4.584;2023-02-28T08:33:46;10.70;85.50
22974;DHT22;11653;50.848;4.584;2023-02-28T08:36:13;11.00;81.80
22974;DHT22;11653;50.848;4.584;2023-02-28T08:38:40;11.10;81.60
22974;DHT22;11653;50.848;4.584;2023-02-28T08:41:08;10.30;81.90
22974;DHT22;11653;50.848;4.584;2023-02-28T08:43:35;10.70;84.30
22974;DHT22;11653;50.848;4.584;2023-02-28T08:46:01;11.10;81.90
22974;DHT22;11653;50.848;4.584;2023-02-28T08:48:28;11.20;79.50
22974;DHT22;11653;50.848;4.584;2023-02-28T08:51:02;10.90;78.80
22974;DHT22;11653;50.848;4.584;2023-02-28T08:53:28;10.90;78.00
22974;DHT22;11653;50.848;4.584;2023-02-28T08:56:05;10.30;80.40
22974;DHT22;11653;50.848;4.584;2023-02-28T08:58:30;10.70;79.40
22974;DHT22;11653;50.848;4.584;2023-02-28T09:00:56;10.80;79.20
22974;DHT22;11653;50.848;4.584;2023-02-28T09:03:23;10.60;78.50
22974;DHT22;11653;50.848;4.584;2023-02-28T09:05:56;10.20;78.50
22974;DHT22;11653;50.848;4.584;2023-02-28T09:08:26;9.90;79.10
22974;DHT22;11653;50.848;4.584;2023-02-28T09:10:52;9.50;78.90
22974;DHT22;11653;50.848;4.584;2023-02-28T09:13:19;9.10;81.50
22974;DHT22;11653;50.848;4.584;2023-02-28T09:15:45;9.00;82.60
22974;DHT22;11653;50.848;4.584;2023-02-28T09:18:11;9.70;82.70
22974;DHT22;11653;50.848;4.584;2023-02-28T09:20:38;10.60;79.70
22974;DHT22;11653;50.848;4.584;2023-02-28T09:23:05;10.80;78.60
22974;DHT22;11653;50.848;4.584;2023-02-28T09:25:31;11.10;73.20
22974;DHT22;11653;50.848;4.584;2023-02-28T09:27:56;10.10;75.10
22974;DHT22;11653;50.848;4.584;2023-02-28T09:30:22;9.70;75.50
22974;DHT22;11653;50.848;4.584;2023-02-28T09:32:48;9.80;76.80
22974;DHT22;11653;50.848;4.584;2023-02-28T09:35:24;10.30;77.00
22974;DHT22;11653;50.848;4.584;2023-02-28T09:37:51;10.50;73.90
22974;DHT22;11653;50.848;4.584;2023-02-28T09:40:21;10.50;73.50
22974;DHT22;11653;50.848;4.584;2023-02-28T09:42:50;10.10;74.20
22974;DHT22;11653;50.848;4.584;2023-02-28T09:45:36;10.50;73.50
22974;DHT22;11653;50.848;4.584;2023-02-28T09:48:16;10.30;72.90
22974;DHT22;11653;50.848;4.584;2023-02-28T09:50:50;10.40;72.90
22974;DHT22;11653;50.848;4.584;2023-02-28T09:53:33;10.60;72.30
22974;DHT22;11653;50.848;4.584;2023-02-28T09:56:09;10.70;71.70
22974;DHT22;11653;50.848;4.584;2023-02-28T09:58:42;10.00;70.90
22974;DHT22;11653;50.848;4.584;2023-02-28T10:01:35;8.80;73.10
22974;DHT22;11653;50.848;4.584;2023-02-28T10:04:42;8.10;75.00
22974;DHT22;11653;50.848;4.584;2023-02-28T10:10:33;7.70;76.80
22974;DHT22;11653;50.848;4.584;2023-02-28T10:13:03;8.40;75.40
22974;DHT22;11653;50.848;4.584;2023-02-28T10:15:31;8.80;72.20
22974;DHT22;11653;50.848;4.584;2023-02-28T10:18:01;9.00;70.30
22974;DHT22;11653;50.848;4.584;2023-02-28T10:20:32;9.10;70.40
22974;DHT22;11653;50.848;4.584;2023-02-28T10:23:21;9.40;69.80
22974;DHT22;11653;50.848;4.584;2023-02-28T10:26:13;9.90;67.50
22974;DHT22;11653;50.848;4.584;2023-02-28T10:28:39;10.50;66.50
22974;DHT22;11653;50.848;4.584;2023-02-28T10:31:11;10.30;64.20
22974;DHT22;11653;50.848;4.584;2023-02-28T10:33:37;9.00;67.70
22974;DHT22;11653;50.848;4.584;2023-02-28T10:36:04;9.40;68.60
22974;DHT22;11653;50.848;4.584;2023-02-28T10:38:33;9.40;69.00
22974;DHT22;11653;50.848;4.584;2023-02-28T10:43:39;9.60;67.70
22974;DHT22;11653;50.848;4.584;2023-02-28T10:48:37;10.70;66.30
22974;DHT22;11653;50.848;4.584;2023-02-28T10:51:08;11.00;65.00
22974;DHT22;11653;50.848;4.584;2023-02-28T10:53:54;11.60;64.20
22974;DHT22;11653;50.848;4.584;2023-02-28T10:56:22;11.00;61.20
22974;DHT22;11653;50.848;4.584;2023-02-28T11:03:58;10.10;64.20
22974;DHT22;11653;50.848;4.584;2023-02-28T11:06:33;9.10;65.70
22974;DHT22;11653;50.848;4.584;2023-02-28T11:09:18;8.60;68.30
22974;DHT22;11653;50.848;4.584;2023-02-28T11:11:47;8.10;70.50
22974;DHT22;11653;50.848;4.584;2023-02-28T11:14:29;8.60;69.20
22974;DHT22;11653;50.848;4.584;2023-02-28T11:16:59;8.90;68.40
22974;DHT22;11653;50.848;4.584;2023-02-28T11:19:29;9.20;68.10
22974;DHT22;11653;50.848;4.584;2023-02-28T11:22:00;9.40;67.90
22974;DHT22;11653;50.848;4.584;2023-02-28T11:24:40;10.00;67.80
22974;DHT22;11653;50.848;4.584;2023-02-28T11:27:11;9.90;64.80
22974;DHT22;11653;50.848;4.584;2023-02-28T11:29:46;10.20;65.60
22974;DHT22;11653;50.848;4.584;2023-02-28T11:32:22;10.70;63.50
22974;DHT22;11653;50.848;4.584;2023-02-28T11:37:31;11.00;60.70
22974;DHT22;11653;50.848;4.584;2023-02-28T11:39:57;10.80;61.40
22974;DHT22;11653;50.848;4.584;2023-02-28T11:42:44;11.40;61.80
22974;DHT22;11653;50.848;4.584;2023-02-28T11:55:54;12.00;56.60
22974;DHT22;11653;50.848;4.584;2023-02-28T12:01:36;10.70;58.90
22974;DHT22;11653;50.848;4.584;2023-02-28T12:04:29;10.30;60.40
22974;DHT22;11653;50.848;4.584;2023-02-28T12:28:50;10.10;60.00
22974;DHT22;11653;50.848;4.584;2023-02-28T12:31:38;10.40;60.30
22974;DHT22;11653;50.848;4.584;2023-02-28T12:34:15;10.90;59.30
22974;DHT22;11653;50.848;4.584;2023-02-28T12:36:44;11.20;58.50
22974;DHT22;11653;50.848;4.584;2023-02-28T12:39:35;11.00;56.80
22974;DHT22;11653;50.848;4.584;2023-02-28T12:42:07;11.00;57.70
22974;DHT22;11653;50.848;4.584;2023-02-28T12:44:44;11.40;57.40
22974;DHT22;11653;50.848;4.584;2023-02-28T12:47:15;10.30;58.00
22974;DHT22;11653;50.848;4.584;2023-02-28T12:49:59;9.90;58.90
22974;DHT22;11653;50.848;4.584;2023-02-28T12:58:03;9.60;59.20
22974;DHT22;11653;50.848;4.584;2023-02-28T13:00:36;9.10;60.10
22974;DHT22;11653;50.848;4.584;2023-02-28T13:09:04;8.90;61.20
22974;DHT22;11653;50.848;4.584;2023-02-28T13:11:52;8.60;63.60
22974;DHT22;11653;50.848;4.584;2023-02-28T13:14:26;9.00;62.70
22974;DHT22;11653;50.848;4.584;2023-02-28T13:19:30;8.60;62.30
22974;DHT22;11653;50.848;4.584;2023-02-28T13:21:58;8.90;62.70
22974;DHT22;11653;50.848;4.584;2023-02-28T13:24:59;9.00;61.20
22974;DHT22;11653;50.848;4.584;2023-02-28T13:27:40;8.80;60.40
22974;DHT22;11653;50.848;4.584;2023-02-28T13:33:35;8.20;62.10
22974;DHT22;11653;50.848;4.584;2023-02-28T13:38:35;7.10;63.20
22974;DHT22;11653;50.848;4.584;2023-02-28T13:44:06;7.00;66.90
22974;DHT22;11653;50.848;4.584;2023-02-28T13:46:35;6.90;68.20
22974;DHT22;11653;50.848;4.584;2023-02-28T13:52:02;6.30;68.30
22974;DHT22;11653;50.848;4.584;2023-02-28T13:55:17;6.10;68.80
22974;DHT22;11653;50.848;4.584;2023-02-28T14:09:01;6.10;71.80
22974;DHT22;11653;50.848;4.584;2023-02-28T14:11:35;6.20;72.10
22974;DHT22;11653;50.848;4.584;2023-02-28T14:14:02;6.40;72.50
22974;DHT22;11653;50.848;4.584;2023-02-28T14:16:40;6.20;70.40
22974;DHT22;11653;50.848;4.584;2023-02-28T14:19:21;6.10;70.90
22974;DHT22;11653;50.848;4.584;2023-02-28T14:22:24;6.20;70.10
22974;DHT22;11653;50.848;4.584;2023-02-28T14:25:16;6.20;70.90
22974;DHT22;11653;50.848;4.584;2023-02-28T14:31:33;6.10;71.40
22974;DHT22;11653;50.848;4.584;2023-02-28T14:34:41;6.40;71.20
22974;DHT22;11653;50.848;4.584;2023-02-28T14:37:25;6.10;71.30
22974;DHT22;11653;50.848;4.584;2023-02-28T14:39:53;5.90;71.90
22974;DHT22;11653;50.848;4.584;2023-02-28T14:42:31;5.80;73.20
22974;DHT22;11653;50.848;4.584;2023-02-28T14:44:58;5.60;73.60
22974;DHT22;11653;50.848;4.584;2023-02-28T14:47:28;5.70;73.70
22974;DHT22;11653;50.848;4.584;2023-02-28T14:49:57;5.60;73.80
22974;DHT22;11653;50.848;4.584;2023-02-28T14:52:28;5.70;74.00
22974;DHT22;11653;50.848;4.584;2023-02-28T14:55:01;5.80;73.60
22974;DHT22;11653;50.848;4.584;2023-02-28T14:57:33;6.00;73.20
22974;DHT22;11653;50.848;4.584;2023-02-28T15:00:16;6.10;74.20
22974;DHT22;11653;50.848;4.584;2023-02-28T15:02:42;6.20;73.00
22974;DHT22;11653;50.848;4.584;2023-02-28T15:07:47;6.20;73.40
22974;DHT22;11653;50.848;4.584;2023-02-28T15:13:06;6.20;73.70
22974;DHT22;11653;50.848;4.584;2023-02-28T15:15:57;6.10;74.20
22974;DHT22;11653;50.848;4.584;2023-02-28T15:20:53;6.10;74.60
22974;DHT22;11653;50.848;4.584;2023-02-28T15:23:21;6.20;74.20
22974;DHT22;11653;50.848;4.584;2023-02-28T15:25:47;6.20;73.60
22974;DHT22;11653;50.848;4.584;2023-02-28T15:28:17;6.10;74.20
22974;DHT22;11653;50.848;4.584;2023-02-28T15:30:55;6.00;75.00
22974;DHT22;11653;50.848;4.584;2023-02-28T15:33:26;5.80;75.30
22974;DHT22;11653;50.848;4.584;2023-02-28T15:36:14;5.80;76.40
22974;DHT22;11653;50.848;4.584;2023-02-28T15:38:40;6.00;75.20
22974;DHT22;11653;50.848;4.584;2023-02-28T15:41:25;5.90;75.00
22974;DHT22;11653;50.848;4.584;2023-02-28T15:44:15;5.80;74.90
22974;DHT22;11653;50.848;4.584;2023-02-28T15:46:57;5.80;76.00
22974;DHT22;11653;50.848;4.584;2023-02-28T15:49:24;5.60;77.00
22974;DHT22;11653;50.848;4.584;2023-02-28T15:51:51;5.60;77.20
22974;DHT22;11653;50.848;4.584;2023-02-28T15:54:24;5.70;77.50
22974;DHT22;11653;50.848;4.584;2023-02-28T15:56:55;5.70;78.10
22974;DHT22;11653;50.848;4.584;2023-02-28T15:59:25;5.80;78.20
22974;DHT22;11653;50.848;4.584;2023-02-28T16:04:36;6.00;77.10
22974;DHT22;11653;50.848;4.584;2023-02-28T16:07:04;6.10;76.90
22974;DHT22;11653;50.848;4.584;2023-02-28T16:09:30;6.00;77.40
22974;DHT22;11653;50.848;4.584;2023-02-28T16:12:00;5.90;77.90
22974;DHT22;11653;50.848;4.584;2023-02-28T16:14:29;5.70;77.90
22974;DHT22;11653;50.848;4.584;2023-02-28T16:17:07;5.70;78.30
22974;DHT22;11653;50.848;4.584;2023-02-28T16:19:38;5.80;78.20
22974;DHT22;11653;50.848;4.584;2023-02-28T16:22:04;5.90;77.80
22974;DHT22;11653;50.848;4.584;2023-02-28T16:24:29;5.80;78.40
22974;DHT22;11653;50.848;4.584;2023-02-28T16:26:56;5.70;78.30
22974;DHT22;11653;50.848;4.584;2023-02-28T16:29:29;5.50;79.40
22974;DHT22;11653;50.848;4.584;2023-02-28T16:31:56;5.40;80.60
22974;DHT22;11653;50.848;4.584;2023-02-28T16:34:23;5.30;80.90
22974;DHT22;11653;50.848;4.584;2023-02-28T16:36:49;5.50;81.20
22974;DHT22;11653;50.848;4.584;2023-02-28T16:39:15;5.60;80.90
22974;DHT22;11653;50.848;4.584;2023-02-28T16:41:43;5.80;80.10
22974;DHT22;11653;50.848;4.584;2023-02-28T16:44:17;5.80;79.20
22974;DHT22;11653;50.848;4.584;2023-02-28T16:46:46;5.80;78.40
22974;DHT22;11653;50.848;4.584;2023-02-28T16:49:12;5.60;78.60
22974;DHT22;11653;50.848;4.584;2023-02-28T16:51:38;5.60;79.80
22974;DHT22;11653;50.848;4.584;2023-02-28T16:54:04;5.70;79.40
22974;DHT22;11653;50.848;4.584;2023-02-28T16:56:30;5.50;79.30
22974;DHT22;11653;50.848;4.584;2023-02-28T16:58:59;5.40;79.50
22974;DHT22;11653;50.848;4.584;2023-02-28T17:01:25;5.50;79.80
22974;DHT22;11653;50.848;4.584;2023-02-28T17:03:52;5.40;79.30
22974;DHT22;11653;50.848;4.584;2023-02-28T17:06:19;5.50;79.70
22974;DHT22;11653;50.848;4.584;2023-02-28T17:08:48;5.40;79.80
22974;DHT22;11653;50.848;4.584;2023-02-28T17:11:13;5.40;80.00
22974;DHT22;11653;50.848;4.584;2023-02-28T17:13:39;5.30;80.40
22974;DHT22;11653;50.848;4.584;2023-02-28T17:16:05;5.40;80.10
22974;DHT22;11653;50.848;4.584;2023-02-28T17:18:31;5.40;79.60
22974;DHT22;11653;50.848;4.584;2023-02-28T17:21:00;5.40;79.70
22974;DHT22;11653;50.848;4.584;2023-02-28T17:23:26;5.30;80.00
22974;DHT22;11653;50.848;4.584;2023-02-28T17:25:51;5.30;80.20
22974;DHT22;11653;50.848;4.584;2023-02-28T17:28:21;5.40;80.30
22974;DHT22;11653;50.848;4.584;2023-02-28T17:30:47;5.30;80.60
22974;DHT22;11653;50.848;4.584;2023-02-28T17:33:14;5.40;80.70
22974;DHT22;11653;50.848;4.584;2023-02-28T17:35:40;5.40;80.60
22974;DHT22;11653;50.848;4.584;2023-02-28T17:38:15;5.40;80.40
22974;DHT22;11653;50.848;4.584;2023-02-28T17:40:41;5.30;81.20
22974;DHT22;11653;50.848;4.584;2023-02-28T17:43:07;5.30;81.50
22974;DHT22;11653;50.848;4.584;2023-02-28T17:45:32;5.30;81.60
22974;DHT22;11653;50.848;4.584;2023-02-28T17:48:00;5.30;81.80
22974;DHT22;11653;50.848;4.584;2023-02-28T17:50:26;5.40;81.60
22974;DHT22;11653;50.848;4.584;2023-02-28T17:52:52;5.50;81.10
22974;DHT22;11653;50.848;4.584;2023-02-28T17:55:18;5.40;81.00
22974;DHT22;11653;50.848;4.584;2023-02-28T17:57:47;5.40;81.60
22974;DHT22;11653;50.848;4.584;2023-02-28T18:00:14;5.40;81.60
22974;DHT22;11653;50.848;4.584;2023-02-28T18:02:41;5.30;82.00
22974;DHT22;11653;50.848;4.584;2023-02-28T18:05:07;5.20;82.00
22974;DHT22;11653;50.848;4.584;2023-02-28T18:07:33;5.30;82.40
22974;DHT22;11653;50.848;4.584;2023-02-28T18:09:59;5.20;82.50
22974;DHT22;11653;50.848;4.584;2023-02-28T18:12:25;5.20;82.80
22974;DHT22;11653;50.848;4.584;2023-02-28T18:14:51;5.20;83.40
22974;DHT22;11653;50.848;4.584;2023-02-28T18:17:16;5.20;83.80